Time;durP1;ratioP1;P1;durP2;ratioP2;P2;SDS_P1;SDS_P2;PMS_P1;PMS_P2;Temp;Humidity;BMP_temperature;BMP_pressure;BME280_temperature;BME280_humidity;BME280_pressure;Samples;Min_cycle;Max_cycle;Signal;HPM_P1;HPM_P2
2022/07/24 00:01:17;;;;;;;12.00;6.97;;;;;;;16.30;93.36;102011.59;5076185;28;20393;-72
2022/07/24 00:03:45;;;;;;;9.73;6.57;;;;;;;16.29;93.42;102019.81;5077043;28;20454;-71
2022/07/24 00:06:10;;;;;;;17.75;6.95;;;;;;;16.27;93.88;102008.34;5076069;28;20429;-71
2022/07/24 00:08:36;;;;;;;8.23;6.13;;;;;;;16.25;93.62;102007.66;5076294;28;20025;-70
2022/07/24 00:11:01;;;;;;;10.52;6.50;;;;;;;16.23;94.25;102005.13;5076285;28;20086;-71
2022/07/24 00:13:26;;;;;;;15.75;6.85;;;;;;;16.22;94.19;102003.44;5074857;28;20058;-71
2022/07/24 00:15:52;;;;;;;14.40;7.03;;;;;;;16.18;94.36;102007.41;5074916;28;20135;-71
2022/07/24 00:18:17;;;;;;;12.15;6.88;;;;;;;16.14;94.89;102014.91;5076111;28;20058;-72
2022/07/24 00:20:42;;;;;;;13.75;7.18;;;;;;;16.09;95.19;102006.44;5075996;28;20097;-71
2022/07/24 00:23:08;;;;;;;10.88;7.25;;;;;;;16.08;96.78;102011.94;5075877;28;20033;-71
2022/07/24 00:25:33;;;;;;;15.60;7.18;;;;;;;16.08;97.17;102014.63;5075916;28;20036;-71
2022/07/24 00:27:59;;;;;;;12.15;7.13;;;;;;;16.07;96.77;102011.13;5076369;28;20450;-71
2022/07/24 00:30:24;;;;;;;14.93;7.50;;;;;;;16.06;97.37;102014.78;5075807;28;20455;-72
2022/07/24 00:32:49;;;;;;;11.80;7.30;;;;;;;16.08;98.19;102018.19;5076357;28;20116;-72
2022/07/24 00:35:15;;;;;;;11.90;7.65;;;;;;;16.09;98.25;102019.84;5075780;28;20043;-72
2022/07/24 00:37:40;;;;;;;15.43;6.63;;;;;;;16.09;98.28;102011.81;5075837;28;20028;-72
2022/07/24 00:40:06;;;;;;;14.55;7.97;;;;;;;16.10;98.52;102020.72;5074685;28;20476;-72
2022/07/24 00:42:32;;;;;;;12.85;6.50;;;;;;;16.10;99.07;102016.19;5075507;28;20036;-72
2022/07/24 00:44:57;;;;;;;15.13;7.80;;;;;;;16.11;99.06;102014.34;5075665;28;20033;-71
2022/07/24 00:47:22;;;;;;;14.00;7.20;;;;;;;16.12;99.19;102013.34;5075589;28;20033;-71
2022/07/24 00:49:48;;;;;;;12.95;6.68;;;;;;;16.13;99.04;102007.00;5075603;28;20467;-71
2022/07/24 00:52:13;;;;;;;16.15;7.65;;;;;;;16.13;99.25;102012.38;5075217;28;20111;-71
2022/07/24 00:54:39;;;;;;;15.95;7.30;;;;;;;16.13;99.19;102012.38;5075524;28;20064;-71
2022/07/24 00:57:04;;;;;;;14.40;7.90;;;;;;;16.14;99.67;102012.22;5075696;28;20036;-71
2022/07/24 00:59:30;;;;;;;13.40;7.63;;;;;;;16.14;100.00;102014.91;5075322;28;20029;-71
2022/07/24 01:01:55;;;;;;;13.00;7.00;;;;;;;16.14;99.34;102006.88;5075896;28;20089;-72
2022/07/24 01:04:21;;;;;;;9.82;6.63;;;;;;;16.12;99.91;102006.16;5075599;28;20064;-71
2022/07/24 01:06:47;;;;;;;16.65;7.75;;;;;;;16.13;99.87;101996.28;5075262;28;20033;-71
2022/07/24 01:09:14;;;;;;;15.45;7.10;;;;;;;16.15;100.00;101988.91;5075204;28;20029;-72
2022/07/24 01:11:41;;;;;;;16.35;7.78;;;;;;;16.14;100.00;101997.97;5074050;28;20060;-72
2022/07/24 01:14:06;;;;;;;15.50;6.85;;;;;;;16.11;100.00;101984.81;5075072;28;20094;-71
2022/07/24 01:16:33;;;;;;;15.25;7.45;;;;;;;16.11;100.00;101984.81;5075189;28;20029;-71
2022/07/24 01:18:58;;;;;;;11.63;6.85;;;;;;;16.11;100.00;101990.19;5074759;28;20033;-71
2022/07/24 01:21:25;;;;;;;12.18;7.10;;;;;;;16.12;100.00;101989.19;5074954;28;20123;-71
2022/07/24 01:23:50;;;;;;;13.52;6.65;;;;;;;16.10;100.00;101996.56;5074834;28;20028;-71
2022/07/24 01:26:16;;;;;;;11.25;7.43;;;;;;;16.11;100.00;101985.69;5075095;28;20028;-71
2022/07/24 01:28:41;;;;;;;12.23;7.22;;;;;;;16.16;100.00;101977.19;5074815;28;20367;-71
2022/07/24 01:31:07;;;;;;;14.05;7.32;;;;;;;16.18;100.00;101984.09;5074788;28;20029;-71
2022/07/24 01:33:32;;;;;;;12.70;6.50;;;;;;;16.16;100.00;101978.00;5074957;28;20063;-70
2022/07/24 01:35:57;;;;;;;12.02;7.20;;;;;;;16.16;100.00;101986.06;5073149;28;20039;-71
2022/07/24 01:38:23;;;;;;;16.25;6.55;;;;;;;16.15;100.00;101983.53;5074580;28;20059;-71
2022/07/24 01:40:48;;;;;;;11.35;6.03;;;;;;;16.13;100.00;101983.69;5074364;28;20083;-71
2022/07/24 01:43:13;;;;;;;10.73;6.50;;;;;;;16.12;100.00;101978.47;5074335;28;20115;-71
2022/07/24 01:45:39;;;;;;;10.15;6.60;;;;;;;16.11;100.00;101980.31;5074544;28;20481;-71
2022/07/24 01:48:04;;;;;;;10.23;6.38;;;;;;;16.07;100.00;101981.59;5074395;28;20038;-71
2022/07/24 01:50:31;;;;;;;13.48;7.20;;;;;;;16.03;100.00;101973.00;5074867;28;20455;-71
2022/07/24 01:52:57;;;;;;;12.80;7.13;;;;;;;16.01;100.00;101979.50;5074284;28;20040;-72
2022/07/24 01:55:22;;;;;;;13.07;7.55;;;;;;;15.99;100.00;101966.22;5074260;28;20031;-72
2022/07/24 01:57:48;;;;;;;15.45;6.70;;;;;;;15.97;100.00;101967.34;5072877;28;20035;-71
2022/07/24 02:00:15;;;;;;;11.95;6.88;;;;;;;15.94;100.00;101967.66;5074502;28;20120;-72
2022/07/24 02:02:42;;;;;;;10.55;6.05;;;;;;;15.92;100.00;101972.34;5073807;28;20028;-72
2022/07/24 02:05:08;;;;;;;12.60;5.70;;;;;;;15.88;100.00;101962.88;5074388;28;20441;-72
2022/07/24 02:07:33;;;;;;;12.27;6.13;;;;;;;15.85;100.00;101964.88;5072517;28;20070;-71
2022/07/24 02:09:59;;;;;;;12.77;6.40;;;;;;;15.84;100.00;101959.66;5073982;28;20029;-71
2022/07/24 02:12:24;;;;;;;11.55;6.47;;;;;;;15.82;100.00;101954.44;5073761;28;20131;-71
2022/07/24 02:14:49;;;;;;;11.48;5.68;;;;;;;15.80;100.00;101959.09;5073700;28;20040;-71
2022/07/24 02:17:15;;;;;;;11.35;6.03;;;;;;;15.80;100.00;101953.72;5073552;28;20028;-71
2022/07/24 02:19:40;;;;;;;13.70;6.82;;;;;;;15.81;100.00;101941.16;5072187;28;20039;-72
2022/07/24 02:22:06;;;;;;;9.95;5.25;;;;;;;15.81;100.00;101947.38;5073785;28;20467;-72
2022/07/24 02:24:31;;;;;;;9.40;4.97;;;;;;;15.84;100.00;101956.97;5073713;28;20086;-72
2022/07/24 02:26:56;;;;;;;9.68;5.38;;;;;;;15.84;100.00;101954.28;5074330;28;20422;-72
2022/07/24 02:29:22;;;;;;;8.70;4.93;;;;;;;15.80;100.00;101951.03;5073649;28;20059;-72
2022/07/24 02:31:47;;;;;;;9.00;5.00;;;;;;;15.76;100.00;101954.97;5073635;28;20036;-72
2022/07/24 02:34:12;;;;;;;11.07;4.93;;;;;;;15.71;100.00;101956.41;5074077;28;20047;-72
2022/07/24 02:36:38;;;;;;;9.00;4.88;;;;;;;15.64;100.00;101956.97;5073574;28;20039;-72
2022/07/24 02:39:12;;;;;;;11.00;4.93;;;;;;;15.63;100.00;101951.75;5072566;28;20086;-73
2022/07/24 02:41:38;;;;;;;12.68;5.60;;;;;;;15.60;100.00;101947.53;5073188;28;20021;-72
2022/07/24 02:44:03;;;;;;;14.43;5.40;;;;;;;15.59;100.00;101943.16;5073327;28;20078;-71
2022/07/24 02:46:29;;;;;;;7.68;4.53;;;;;;;15.56;100.00;101932.72;5073275;28;20032;-72
2022/07/24 02:48:54;;;;;;;7.25;4.60;;;;;;;15.55;100.00;101935.56;5073076;28;20036;-71
2022/07/24 02:51:19;;;;;;;9.85;4.85;;;;;;;15.54;100.00;101940.09;5073536;28;20029;-72
2022/07/24 02:53:45;;;;;;;9.27;5.07;;;;;;;15.57;100.00;101937.09;5073297;28;20465;-72
2022/07/24 02:56:10;;;;;;;10.45;4.95;;;;;;;15.58;100.00;101930.72;5073258;28;20063;-72
2022/07/24 02:58:35;;;;;;;8.55;4.38;;;;;;;15.58;100.00;101930.72;5073674;28;20347;-72
2022/07/24 03:01:01;;;;;;;11.02;4.45;;;;;;;15.58;100.00;101920.00;5071954;28;20044;-71
2022/07/24 03:03:26;;;;;;;9.88;4.45;;;;;;;15.60;100.00;101928.78;5072925;28;20374;-71
2022/07/24 03:05:52;;;;;;;8.77;4.45;;;;;;;15.57;100.00;101920.16;5073148;28;20383;-71
2022/07/24 03:08:17;;;;;;;5.85;3.80;;;;;;;15.56;100.00;101926.53;5073772;28;20482;-71
2022/07/24 03:10:42;;;;;;;6.32;3.95;;;;;;;15.56;100.00;101923.84;5073283;28;20040;-70
2022/07/24 03:13:08;;;;;;;6.63;4.10;;;;;;;15.51;100.00;101919.75;5073044;28;20391;-71
2022/07/24 03:15:34;;;;;;;5.57;3.85;;;;;;;15.44;100.00;101913.28;5072910;28;20036;-72
2022/07/24 03:17:59;;;;;;;8.23;4.38;;;;;;;15.40;100.00;101908.34;5073008;28;20423;-72
2022/07/24 03:20:28;;;;;;;8.43;4.65;;;;;;;15.38;100.00;101905.81;5073100;28;20475;-71
2022/07/24 03:22:54;;;;;;;6.93;3.97;;;;;;;15.34;100.00;101899.88;5072925;28;20082;-71
2022/07/24 03:25:19;;;;;;;6.35;3.88;;;;;;;15.32;100.00;101903.72;5073370;28;20466;-71
2022/07/24 03:27:46;;;;;;;10.05;4.07;;;;;;;15.27;100.00;101901.47;5073520;28;20409;-71
2022/07/24 03:30:11;;;;;;;9.27;3.70;;;;;;;15.27;100.00;101897.91;5073089;28;20029;-72
2022/07/24 03:32:37;;;;;;;7.40;3.90;;;;;;;15.24;100.00;101896.41;5072921;28;20090;-71
2022/07/24 03:35:03;;;;;;;7.32;3.53;;;;;;;15.22;100.00;101892.16;5076502;28;20028;-71
2022/07/24 03:37:29;;;;;;;9.98;3.92;;;;;;;15.20;100.00;101903.03;5076794;28;20037;-72
2022/07/24 03:39:56;;;;;;;6.85;3.60;;;;;;;15.19;100.00;101900.50;5076855;28;20127;-72
2022/07/24 03:42:21;;;;;;;10.07;3.50;;;;;;;15.18;100.00;101904.16;5077089;28;20112;-71
2022/07/24 03:44:47;;;;;;;5.95;3.50;;;;;;;15.15;100.00;101905.28;5075311;28;20086;-70
2022/07/24 03:47:12;;;;;;;4.28;3.08;;;;;;;15.13;100.00;101912.63;5075529;28;20024;-71
2022/07/24 03:49:37;;;;;;;5.72;3.50;;;;;;;15.08;100.00;101901.50;5076654;28;20028;-72
2022/07/24 03:52:03;;;;;;;7.90;3.60;;;;;;;15.10;100.00;101910.22;5076669;28;20120;-72
2022/07/24 03:54:29;;;;;;;6.18;3.33;;;;;;;15.08;100.00;101905.00;5076644;28;20432;-72
2022/07/24 03:56:54;;;;;;;7.18;3.10;;;;;;;15.09;100.00;101909.41;5076683;28;20028;-71
2022/07/24 03:59:20;;;;;;;6.25;3.60;;;;;;;15.09;100.00;101901.34;5076808;28;20025;-71
2022/07/24 04:01:45;;;;;;;10.20;3.63;;;;;;;15.07;100.00;101905.16;5076515;28;20037;-71
2022/07/24 04:04:10;;;;;;;5.88;3.72;;;;;;;15.09;100.00;101897.81;5075136;28;20033;-72
2022/07/24 04:06:36;;;;;;;8.48;3.50;;;;;;;15.10;100.00;101889.63;5076594;28;20032;-72
2022/07/24 04:09:03;;;;;;;6.43;3.67;;;;;;;15.14;100.00;101890.19;5076442;28;20056;-72
2022/07/24 04:11:28;;;;;;;4.53;3.20;;;;;;;15.16;100.00;101889.03;5076365;28;20177;-72
2022/07/24 04:13:53;;;;;;;10.55;3.72;;;;;;;15.17;100.00;101892.59;5076042;28;20512;-71
2022/07/24 04:16:21;;;;;;;6.28;3.20;;;;;;;15.17;100.00;101889.91;5076509;28;20600;-71
2022/07/24 04:18:46;;;;;;;8.18;3.35;;;;;;;15.15;100.00;101902.59;5076095;28;20032;-71
2022/07/24 04:21:12;;;;;;;6.88;3.13;;;;;;;15.13;100.00;101899.22;5076165;28;20394;-72
2022/07/24 04:23:37;;;;;;;8.48;4.10;;;;;;;15.12;100.00;101905.56;5076615;28;20086;-72
2022/07/24 04:26:03;;;;;;;7.88;3.65;;;;;;;15.11;100.00;101907.41;5076809;28;20474;-72
2022/07/24 04:28:29;;;;;;;9.23;3.50;;;;;;;15.14;100.00;101911.66;5075705;28;20028;-72
2022/07/24 04:30:54;;;;;;;5.32;3.47;;;;;;;15.13;100.00;101904.59;5075977;28;20162;-70
2022/07/24 04:33:20;;;;;;;5.63;3.28;;;;;;;15.13;100.00;101894.69;5075961;28;20459;-71
2022/07/24 04:35:45;;;;;;;7.68;3.58;;;;;;;15.17;100.00;101889.91;5057842;28;20028;-71
2022/07/24 04:38:11;;;;;;;7.95;3.80;;;;;;;15.25;100.00;101889.19;5075813;28;20116;-71
2022/07/24 04:40:36;;;;;;;8.63;3.42;;;;;;;15.29;100.00;101891.44;5076133;28;20474;-71
2022/07/24 04:43:02;;;;;;;5.30;3.30;;;;;;;15.32;100.00;101898.34;5076018;28;20078;-71
2022/07/24 04:45:27;;;;;;;5.47;3.40;;;;;;;15.34;100.00;101909.75;5073963;28;20494;-71
2022/07/24 04:47:52;;;;;;;6.07;3.33;;;;;;;15.37;100.00;101905.97;5074468;28;20043;-71
2022/07/24 04:50:18;;;;;;;9.63;3.17;;;;;;;15.40;100.00;101916.38;5076146;28;20036;-71
2022/07/24 04:52:43;;;;;;;5.78;3.47;;;;;;;15.43;100.00;101916.09;5075726;28;20094;-72
2022/07/24 04:55:09;;;;;;;5.78;2.90;;;;;;;15.45;100.00;101920.34;5075771;28;20404;-72
2022/07/24 04:57:35;;;;;;;9.00;3.95;;;;;;;15.51;100.00;101914.38;5075615;28;20449;-71
2022/07/24 05:00:00;;;;;;;7.60;3.20;;;;;;;15.59;100.00;101916.34;5075553;28;20029;-72
2022/07/24 05:02:25;;;;;;;5.75;3.10;;;;;;;15.65;100.00;101914.91;5074595;28;20089;-71
2022/07/24 05:04:51;;;;;;;6.90;3.30;;;;;;;15.70;100.00;101915.31;5075192;28;20039;-72
2022/07/24 05:07:16;;;;;;;5.55;2.92;;;;;;;15.75;100.00;101907.69;5075928;28;20470;-72
2022/07/24 05:09:42;;;;;;;6.32;3.17;;;;;;;15.81;100.00;101909.81;5075486;28;20037;-71
2022/07/24 05:12:08;;;;;;;3.72;3.17;;;;;;;15.88;100.00;101904.66;5075036;28;20052;-71
2022/07/24 05:14:33;;;;;;;5.45;2.80;;;;;;;15.94;100.00;101919.34;5074950;28;20044;-70
2022/07/24 05:16:58;;;;;;;3.50;2.83;;;;;;;16.00;99.81;101919.63;5075608;28;20028;-71
2022/07/24 05:19:24;;;;;;;7.75;3.30;;;;;;;16.03;99.53;101915.75;5075614;28;20065;-70
2022/07/24 05:21:49;;;;;;;4.80;2.80;;;;;;;16.09;99.41;101928.59;5074911;28;20482;-71
2022/07/24 05:24:14;;;;;;;4.38;2.90;;;;;;;16.13;98.54;101931.84;5074782;28;20037;-71
2022/07/24 05:26:40;;;;;;;9.07;2.83;;;;;;;16.29;97.12;101926.66;5074843;28;20063;-71
2022/07/24 05:29:06;;;;;;;7.32;2.90;;;;;;;16.48;96.92;101919.47;5074768;28;20024;-71
2022/07/24 05:31:33;;;;;;;3.38;2.70;;;;;;;16.75;95.88;101922.09;5074530;28;20134;-70
2022/07/24 05:33:58;;;;;;;4.28;2.83;;;;;;;17.08;94.29;101930.47;5074843;28;20045;-70
2022/07/24 05:36:24;;;;;;;2.70;2.30;;;;;;;17.38;91.54;101924.84;5074877;28;20029;-70
2022/07/24 05:38:50;;;;;;;3.00;2.63;;;;;;;17.60;88.16;101936.88;5075164;28;20024;-70
2022/07/24 05:41:15;;;;;;;5.30;2.60;;;;;;;17.78;86.67;101931.47;5074589;28;20335;-71
2022/07/24 05:43:41;;;;;;;5.43;2.72;;;;;;;17.93;85.27;101929.88;5074840;28;20115;-71
2022/07/24 05:46:06;;;;;;;4.32;2.70;;;;;;;18.12;85.18;101931.50;5074435;28;20060;-71
2022/07/24 05:48:32;;;;;;;6.47;3.08;;;;;;;18.28;83.99;101935.25;5074340;28;20033;-71
2022/07/24 05:50:58;;;;;;;4.70;2.20;;;;;;;18.43;83.02;101932.75;5075124;28;20036;-71
2022/07/24 05:53:24;;;;;;;4.72;2.63;;;;;;;18.53;81.84;101928.06;5074361;28;20036;-71
2022/07/24 05:55:50;;;;;;;4.05;2.13;;;;;;;18.61;81.40;101922.69;5074700;28;20040;-71
2022/07/24 05:58:16;;;;;;;2.40;2.20;;;;;;;18.68;82.30;101925.56;5073775;28;20050;-71
2022/07/24 06:00:41;;;;;;;4.97;2.60;;;;;;;18.74;80.53;101932.16;5074419;28;20466;-71
2022/07/24 06:03:07;;;;;;;8.15;2.60;;;;;;;18.70;79.10;101928.09;5074066;28;20068;-70
2022/07/24 06:05:32;;;;;;;2.80;2.30;;;;;;;18.63;79.91;101933.28;5073747;28;20462;-71
2022/07/24 06:07:58;;;;;;;3.90;2.60;;;;;;;18.53;80.38;101928.06;5073868;28;20032;-71
2022/07/24 06:10:23;;;;;;;4.78;2.30;;;;;;;18.41;81.08;101932.91;5073118;28;20119;-71
2022/07/24 06:12:49;;;;;;;7.05;2.58;;;;;;;18.27;82.21;101934.41;5073681;28;20048;-72
2022/07/24 06:15:14;;;;;;;7.35;2.67;;;;;;;18.20;82.93;101933.38;5073678;28;20028;-71
2022/07/24 06:17:41;;;;;;;4.18;2.60;;;;;;;18.13;83.90;101925.06;5072872;28;20032;-71
2022/07/24 06:20:07;;;;;;;4.07;2.63;;;;;;;18.23;83.99;101933.03;5073767;28;20032;-72
2022/07/24 06:22:33;;;;;;;5.38;2.60;;;;;;;18.49;83.05;101935.63;5073751;28;20032;-71
2022/07/24 06:24:58;;;;;;;4.15;2.53;;;;;;;18.83;82.82;101939.22;5073017;28;20447;-72
2022/07/24 06:27:24;;;;;;;6.55;2.47;;;;;;;19.29;78.53;101934.22;5073960;28;20021;-72
2022/07/24 06:29:49;;;;;;;5.22;2.33;;;;;;;19.62;77.25;101938.72;5073672;28;20029;-72
2022/07/24 06:32:14;;;;;;;9.30;3.53;;;;;;;19.85;76.83;101933.44;5073844;28;20035;-72
2022/07/24 06:34:40;;;;;;;2.95;2.50;;;;;;;19.79;75.54;101928.72;5073621;28;20048;-72
2022/07/24 06:37:05;;;;;;;4.32;2.45;;;;;;;19.68;75.66;101933.47;5073500;28;20113;-73
2022/07/24 06:39:31;;;;;;;3.90;2.53;;;;;;;19.58;76.53;101929.28;5073486;28;20139;-71
2022/07/24 06:41:56;;;;;;;3.53;2.30;;;;;;;19.42;77.25;101932.84;5073526;28;20044;-72
2022/07/24 06:44:22;;;;;;;4.53;2.50;;;;;;;19.34;78.54;101934.53;5073816;28;20033;-72
2022/07/24 06:46:48;;;;;;;4.32;2.30;;;;;;;19.40;79.69;101932.19;5073780;28;20043;-73
2022/07/24 06:49:13;;;;;;;3.63;2.20;;;;;;;19.47;77.98;101934.00;5072046;28;20481;-72
2022/07/24 06:51:38;;;;;;;3.40;2.20;;;;;;;19.60;76.95;101932.63;5073048;28;20028;-73
2022/07/24 06:54:04;;;;;;;3.28;2.30;;;;;;;19.72;77.13;101933.94;5073241;28;20035;-73
2022/07/24 06:56:29;;;;;;;5.22;2.50;;;;;;;19.82;77.58;101929.22;5073449;28;20473;-73
2022/07/24 06:58:55;;;;;;;7.13;2.30;;;;;;;19.86;77.35;101927.88;5073137;28;20033;-73
2022/07/24 07:01:20;;;;;;;2.35;2.03;;;;;;;19.86;77.00;101932.44;5073273;28;20039;-74
2022/07/24 07:03:45;;;;;;;4.25;2.30;;;;;;;19.98;76.83;101914.81;5073182;28;20033;-72
2022/07/24 07:06:11;;;;;;;2.30;2.03;;;;;;;20.08;75.25;101928.13;5071426;28;20039;-73
2022/07/24 07:08:36;;;;;;;4.97;2.20;;;;;;;20.20;74.34;101923.19;5072338;28;20075;-73
2022/07/24 07:11:02;;;;;;;4.20;2.05;;;;;;;20.39;73.27;101911.06;5072888;28;20035;-73
2022/07/24 07:13:27;;;;;;;4.07;2.00;;;;;;;20.57;73.35;101913.47;5073301;28;20071;-72
2022/07/24 07:15:53;;;;;;;5.50;2.30;;;;;;;20.77;73.12;101930.13;5073349;28;20072;-74
2022/07/24 07:18:18;;;;;;;5.15;2.25;;;;;;;20.90;71.62;101937.59;5073236;28;20029;-74
2022/07/24 07:20:43;;;;;;;3.60;2.00;;;;;;;21.03;71.92;101934.31;5072732;28;20470;-74
2022/07/24 07:23:09;;;;;;;3.67;2.20;;;;;;;21.15;69.50;101924.72;5072898;28;20453;-74
2022/07/24 07:25:34;;;;;;;6.18;2.00;;;;;;;21.33;70.11;101932.50;5054862;28;20032;-72
2022/07/24 07:28:00;;;;;;;2.17;1.90;;;;;;;21.33;69.40;101931.69;5073127;28;20031;-74
2022/07/24 07:30:25;;;;;;;3.15;2.00;;;;;;;21.37;69.48;101928.41;5072822;28;20097;-73
2022/07/24 07:32:50;;;;;;;2.22;1.70;;;;;;;21.40;68.78;101922.63;5072941;28;20115;-73
2022/07/24 07:35:16;;;;;;;3.63;2.17;;;;;;;21.59;67.29;101921.28;5072986;28;20462;-74
2022/07/24 07:37:45;;;;;;;2.75;2.00;;;;;;;21.62;67.55;101914.66;5072852;28;20033;-72
2022/07/24 07:40:10;;;;;;;3.25;2.00;;;;;;;21.60;66.34;101911.28;5072705;28;20032;-74
2022/07/24 07:42:36;;;;;;;3.83;2.10;;;;;;;21.84;67.59;101915.59;5073186;28;20032;-72
2022/07/24 07:45:01;;;;;;;3.08;1.98;;;;;;;21.99;65.79;101912.88;5072816;28;20032;-74
2022/07/24 07:47:26;;;;;;;4.13;2.00;;;;;;;22.08;63.35;101908.16;5073365;28;20029;-74
2022/07/24 07:49:52;;;;;;;3.00;1.90;;;;;;;22.12;65.01;101914.88;5073446;28;20032;-73
2022/07/24 07:52:17;;;;;;;3.65;2.22;;;;;;;22.26;63.46;101914.03;5071646;28;20033;-74
2022/07/24 07:54:42;;;;;;;2.75;2.00;;;;;;;22.39;64.13;101907.94;5072753;28;20147;-75
2022/07/24 07:57:08;;;;;;;2.60;1.73;;;;;;;22.56;63.34;101911.25;5072468;28;20059;-73
2022/07/24 07:59:33;;;;;;;2.47;2.00;;;;;;;22.67;62.91;101904.47;5072611;28;20394;-71
2022/07/24 08:01:59;;;;;;;3.30;1.80;;;;;;;22.83;64.32;101898.78;5054389;28;20028;-71
2022/07/24 08:04:25;;;;;;;1.98;1.75;;;;;;;23.02;62.19;101908.13;5072205;28;20125;-73
2022/07/24 08:06:50;;;;;;;4.00;2.05;;;;;;;23.05;61.48;101898.78;5072277;28;20052;-69
2022/07/24 08:09:15;;;;;;;2.35;1.52;;;;;;;23.17;60.77;101897.22;5071985;28;20036;-71
2022/07/24 08:11:41;;;;;;;3.55;1.80;;;;;;;23.09;57.64;101897.31;5072028;28;20124;-71
2022/07/24 08:14:06;;;;;;;6.20;1.60;;;;;;;23.23;60.86;101891.00;5072246;28;20363;-70
2022/07/24 08:16:31;;;;;;;1.90;1.63;;;;;;;23.46;59.88;101892.59;5072275;28;20378;-70
2022/07/24 08:18:57;;;;;;;10.95;2.05;;;;;;;23.73;57.79;101904.44;5072137;28;20029;-73
2022/07/24 08:21:22;;;;;;;2.08;1.50;;;;;;;23.72;56.03;101891.94;5075846;28;20078;-71
2022/07/24 08:23:48;;;;;;;4.15;1.80;;;;;;;23.80;57.75;101898.25;5074418;28;20112;-71
2022/07/24 08:26:14;;;;;;;2.15;1.90;;;;;;;23.99;57.15;101899.38;5075781;28;20040;-72
2022/07/24 08:28:39;;;;;;;5.45;2.00;;;;;;;23.97;55.13;101901.47;5075945;28;20028;-74
2022/07/24 08:31:04;;;;;;;3.33;1.80;;;;;;;24.24;55.29;101907.84;5075676;28;20082;-71
2022/07/24 08:33:30;;;;;;;3.38;1.80;;;;;;;24.46;52.24;101897.66;5075276;28;20107;-71
2022/07/24 08:35:55;;;;;;;3.70;1.90;;;;;;;24.46;52.47;101898.47;5075393;28;20029;-69
2022/07/24 08:38:20;;;;;;;2.90;2.00;;;;;;;24.87;53.88;101899.41;5075490;28;20033;-67
2022/07/24 08:40:46;;;;;;;3.55;1.77;;;;;;;25.04;52.78;101905.25;5075846;28;20044;-67
2022/07/24 08:43:11;;;;;;;5.28;1.88;;;;;;;25.24;51.21;101894.34;5075465;28;20028;-69
2022/07/24 08:45:41;;;;;;;1.73;1.63;;;;;;;25.60;50.81;101892.22;5075779;28;20032;-70
2022/07/24 08:48:09;;;;;;;3.22;1.60;;;;;;;25.92;47.96;101886.88;5075474;28;20040;-70
2022/07/24 08:50:38;;;;;;;3.10;1.88;;;;;;;26.00;47.27;101892.94;5075198;28;20031;-69
2022/07/24 08:53:05;;;;;;;3.80;2.03;;;;;;;26.50;47.51;101883.19;5073817;28;20028;-69
2022/07/24 08:55:30;;;;;;;4.55;2.00;;;;;;;27.20;47.00;101874.03;5075311;28;20028;-71
2022/07/24 08:58:00;;;;;;;4.70;1.80;;;;;;;27.48;45.00;101880.94;5075618;28;20029;-72
2022/07/24 09:00:26;;;;;;;5.28;1.85;;;;;;;28.09;43.05;101881.91;5075242;28;20575;-70
2022/07/24 09:02:52;;;;;;;2.67;1.83;;;;;;;28.60;41.61;101879.69;5075160;28;20441;-72
2022/07/24 09:05:18;;;;;;;2.30;1.63;;;;;;;28.44;40.61;101887.50;5075211;28;20029;-72
2022/07/24 09:07:43;;;;;;;2.22;1.63;;;;;;;28.32;40.70;101886.63;5075167;28;20040;-70
2022/07/24 09:10:12;;;;;;;3.00;2.13;;;;;;;28.89;38.97;101875.22;5075364;28;20025;-71
2022/07/24 09:12:44;;;;;;;3.08;1.80;;;;;;;29.64;39.59;101887.34;5074809;28;20053;-70
2022/07/24 09:15:18;;;;;;;2.25;1.85;;;;;;;30.06;37.12;101872.56;5075450;28;20356;-71
2022/07/24 09:17:48;;;;;;;7.53;1.98;;;;;;;30.58;36.78;101888.06;5075379;28;20076;-69
2022/07/24 09:20:13;;;;;;;2.55;1.85;;;;;;;31.24;36.03;101880.06;5074845;28;20037;-72
2022/07/24 09:22:41;;;;;;;2.33;1.77;;;;;;;31.36;33.97;101873.63;5075366;28;20381;-70
2022/07/24 09:25:27;;;;;;;2.92;1.52;;;;;;;30.85;34.96;101870.94;5073951;28;20462;-72
2022/07/24 09:27:57;;;;;;;4.47;1.85;;;;;;;31.43;33.94;101871.53;5075565;28;20024;-70
2022/07/24 09:30:27;;;;;;;8.00;1.80;;;;;;;32.15;36.04;101870.47;5074640;28;20028;-70
2022/07/24 09:33:17;;;;;;;3.97;2.03;;;;;;;32.72;33.13;101868.25;5073898;28;20521;-72
2022/07/24 09:35:48;;;;;;;1.67;1.58;;;;;;;32.56;32.06;101874.69;5075440;28;20058;-70
2022/07/24 09:38:16;;;;;;;7.45;1.95;;;;;;;32.65;32.44;101873.97;5074483;28;20478;-76
2022/07/24 09:40:49;;;;;;;3.85;2.05;;;;;;;32.60;32.44;101865.66;5074658;28;20584;-72
2022/07/24 09:43:14;;;;;;;4.30;1.88;;;;;;;32.95;32.18;101869.81;5073683;28;20036;-77
2022/07/24 09:46:08;;;;;;;3.00;1.65;;;;;;;32.76;31.33;101863.88;5074406;28;20045;-72
2022/07/24 09:48:34;;;;;;;2.97;1.80;;;;;;;33.09;30.97;101866.59;5064618;28;20045;-71
2022/07/24 09:51:13;;;;;;;3.08;1.60;;;;;;;33.06;29.41;101873.44;5073100;28;20077;-73
2022/07/24 09:53:40;;;;;;;1.67;1.58;;;;;;;33.37;31.54;101866.19;5074250;28;20052;-72
2022/07/24 09:56:09;;;;;;;3.03;1.63;;;;;;;33.50;30.37;101861.28;5073543;28;20132;-72
2022/07/24 09:58:39;;;;;;;2.50;1.73;;;;;;;33.31;30.70;101861.75;5073495;28;20036;-71
2022/07/24 10:01:07;;;;;;;1.70;1.60;;;;;;;33.32;30.35;101860.69;5074012;28;20029;-71
2022/07/24 10:03:39;;;;;;;3.05;1.80;;;;;;;32.88;30.87;101857.34;5073864;28;20482;-75
2022/07/24 10:06:08;;;;;;;1.95;1.77;;;;;;;33.13;30.02;101851.19;5074139;28;20033;-75
2022/07/24 10:08:35;;;;;;;2.08;1.75;;;;;;;33.08;31.18;101864.91;5074283;28;20040;-72
2022/07/24 10:11:02;;;;;;;1.83;1.63;;;;;;;33.38;29.87;101848.56;5073578;28;20032;-72
2022/07/24 10:13:28;;;;;;;4.18;1.83;;;;;;;33.55;30.06;101851.09;5074086;28;20045;-77
2022/07/24 10:16:14;;;;;;;3.10;1.80;;;;;;;33.45;30.66;101850.25;5074005;28;20029;-77
2022/07/24 10:18:51;;;;;;;4.28;1.60;;;;;;;33.67;29.31;101853.63;5069474;28;20495;-79
2022/07/24 10:21:21;;;;;;;2.03;1.70;;;;;;;34.04;29.26;101849.91;5073835;28;20474;-77
2022/07/24 10:24:05;;;;;;;5.35;1.83;;;;;;;34.16;29.57;101837.75;5073744;28;20082;-72
2022/07/24 10:26:42;;;;;;;2.15;1.70;;;;;;;33.87;29.89;101838.25;5073409;28;20119;-73
2022/07/24 10:29:13;;;;;;;2.95;2.00;;;;;;;34.10;29.14;101836.94;5074209;28;20028;-73
2022/07/24 10:31:44;;;;;;;2.70;1.70;;;;;;;34.10;29.66;101836.94;5073745;28;20035;-72
2022/07/24 10:34:19;;;;;;;3.15;2.08;;;;;;;33.43;28.79;101835.88;5073538;28;20051;-72
2022/07/24 10:36:54;;;;;;;5.22;1.85;;;;;;;34.50;29.25;101837.22;5073328;28;20478;-71
2022/07/24 10:39:33;;;;;;;2.85;1.90;;;;;;;33.96;29.62;101838.56;5074001;28;20029;-72
2022/07/24 10:42:04;;;;;;;3.83;1.98;;;;;;;34.21;28.74;101835.81;5073802;28;20419;-73
2022/07/24 10:44:30;;;;;;;4.35;2.10;;;;;;;33.87;30.24;101841.03;5073315;28;20099;-73
2022/07/24 10:46:56;;;;;;;3.33;2.00;;;;;;;34.12;28.31;101828.38;5073712;28;20028;-73
2022/07/24 10:49:44;;;;;;;4.38;2.42;;;;;;;34.02;28.98;101824.47;5073006;28;20029;-73
2022/07/24 10:52:42;;;;;;;4.65;2.08;;;;;;;34.35;29.79;101822.34;5073238;28;20077;-73
2022/07/24 10:55:23;;;;;;;5.32;2.20;;;;;;;34.46;28.76;101830.59;5073296;28;20118;-73
2022/07/24 10:57:56;;;;;;;;;;;;;;;34.55;28.43;101832.53;5073208;28;20025;-72
2022/07/24 11:00:25;;;;;;;4.07;1.85;;;;;;;34.93;28.58;101824.78;5073315;28;19908;-71
2022/07/24 11:02:59;;;;;;;5.33;1.90;;;;;;;34.77;27.93;101815.69;5073597;28;20115;-72
2022/07/24 11:05:29;;;;;;;3.55;2.03;;;;;;;34.71;28.05;101825.06;5073676;28;20103;-76
2022/07/24 11:08:29;;;;;;;6.70;2.40;;;;;;;34.24;28.68;101826.16;5072995;28;20024;-73
2022/07/24 11:10:57;;;;;;;3.83;2.10;;;;;;;34.49;28.66;101813.50;5073350;28;20047;-75
2022/07/24 11:13:32;;;;;;;3.85;2.10;;;;;;;34.48;29.99;101820.13;5072925;28;20040;-71
2022/07/24 11:16:09;;;;;;;4.97;2.17;;;;;;;34.58;27.75;101814.59;5073187;28;20430;-73
2022/07/24 11:18:35;;;;;;;5.10;1.90;;;;;;;34.63;28.77;101819.28;5072651;28;20103;-72